createdAt,value
2022-09-16T00:00:10.681Z,1.80
2022-09-16T00:02:58.552Z,2.20
2022-09-16T00:05:25.848Z,1.93
2022-09-16T00:07:53.657Z,1.83
2022-09-16T00:10:21.544Z,2.10
2022-09-16T00:12:50.014Z,2.17
2022-09-16T00:15:17.901Z,1.90
2022-09-16T00:17:44.824Z,2.13
2022-09-16T00:20:12.045Z,2.20
2022-09-16T00:22:38.863Z,2.27
2022-09-16T00:25:06.379Z,2.37
2022-09-16T00:27:33.486Z,1.80
2022-09-16T00:30:00.350Z,2.00
2022-09-16T00:32:27.505Z,2.10
2022-09-16T00:34:54.665Z,1.80
2022-09-16T00:37:21.568Z,1.70
2022-09-16T00:39:49.696Z,2.20
2022-09-16T00:42:18.493Z,1.77
2022-09-16T00:44:51.515Z,2.17
2022-09-16T00:47:24.999Z,1.80
2022-09-16T00:49:56.707Z,1.93
2022-09-16T00:52:23.812Z,2.23
2022-09-16T00:54:50.586Z,2.37
2022-09-16T00:57:17.400Z,2.10
2022-09-16T00:59:50.381Z,2.20
2022-09-16T01:02:20.792Z,2.00
2022-09-16T01:04:53.430Z,1.87
2022-09-16T01:07:34.595Z,2.00
2022-09-16T01:10:01.713Z,2.13
2022-09-16T01:12:31.273Z,2.03
2022-09-16T01:14:58.720Z,2.03
2022-09-16T01:17:43.840Z,2.13
2022-09-16T01:20:28.997Z,2.20
2022-09-16T01:24:04.200Z,1.63
2022-09-16T01:26:45.940Z,1.47
2022-09-16T01:29:35.920Z,1.70
2022-09-16T01:32:29.321Z,1.70
2022-09-16T01:35:10.570Z,1.37
2022-09-16T01:38:02.884Z,1.87
2022-09-16T01:40:48.117Z,2.00
2022-09-16T01:43:25.440Z,1.83
2022-09-16T01:46:14.528Z,2.30
2022-09-16T01:49:18.045Z,2.10
2022-09-16T01:51:55.300Z,2.80
2022-09-16T01:54:32.027Z,1.57
2022-09-16T01:57:08.053Z,2.40
2022-09-16T01:59:42.691Z,2.07
2022-09-16T02:02:26.690Z,1.83
2022-09-16T02:04:57.190Z,1.70
2022-09-16T02:07:33.381Z,1.60
2022-09-16T02:10:08.781Z,1.70
2022-09-16T02:12:41.188Z,1.77
2022-09-16T02:15:11.298Z,1.70
2022-09-16T02:17:45.089Z,1.83
2022-09-16T02:20:20.695Z,2.03
2022-09-16T02:22:52.155Z,1.90
2022-09-16T02:25:19.745Z,2.80
2022-09-16T02:27:49.250Z,2.00
2022-09-16T02:30:20.419Z,2.03
2022-09-16T02:32:52.249Z,1.83
2022-09-16T02:35:20.599Z,2.00
2022-09-16T02:37:53.112Z,2.10
2022-09-16T02:40:25.752Z,1.90
2022-09-16T02:42:53.204Z,2.23
2022-09-16T02:45:26.129Z,2.03
2022-09-16T02:48:06.267Z,2.20
2022-09-16T02:50:41.891Z,2.20
2022-09-16T02:53:27.363Z,2.07
2022-09-16T02:56:02.234Z,2.30
2022-09-16T02:58:29.972Z,2.00
2022-09-16T03:00:58.584Z,2.93
2022-09-16T03:03:25.638Z,2.70
2022-09-16T03:06:39.173Z,1.80
2022-09-16T03:09:09.890Z,2.30
2022-09-16T03:11:45.986Z,2.27
2022-09-16T03:14:53.066Z,2.53
2022-09-16T03:17:26.176Z,2.30
2022-09-16T03:20:02.577Z,2.23
2022-09-16T03:22:34.613Z,1.83
2022-09-16T03:25:16.925Z,1.90
2022-09-16T03:27:58.737Z,2.00
2022-09-16T03:30:25.602Z,1.97
2022-09-16T03:33:00.672Z,2.30
2022-09-16T03:35:30.273Z,2.13
2022-09-16T03:37:59.425Z,2.10
2022-09-16T03:40:29.797Z,1.97
2022-09-16T03:42:58.223Z,1.97
2022-09-16T03:45:25.625Z,2.63
2022-09-16T03:47:53.565Z,2.23
2022-09-16T03:50:21.459Z,1.80
2022-09-16T03:52:49.532Z,2.90
2022-09-16T03:55:17.042Z,1.90
2022-09-16T03:57:44.498Z,2.40
2022-09-16T04:00:11.904Z,2.40
2022-09-16T04:02:38.951Z,1.97
2022-09-16T04:05:06.395Z,2.07
2022-09-16T04:07:33.632Z,2.57
2022-09-16T04:10:01.856Z,2.50
2022-09-16T04:12:29.604Z,2.33
2022-09-16T04:14:57.026Z,1.97
2022-09-16T04:17:24.368Z,2.27
2022-09-16T04:19:52.865Z,1.90
2022-09-16T04:22:19.899Z,3.17
2022-09-16T04:24:46.935Z,2.20
2022-09-16T04:27:13.743Z,2.07
2022-09-16T04:29:40.748Z,2.70
2022-09-16T04:32:07.622Z,2.10
2022-09-16T04:34:34.499Z,2.33
2022-09-16T04:37:01.619Z,1.90
2022-09-16T04:39:28.447Z,2.20
2022-09-16T04:41:55.382Z,2.20
2022-09-16T04:44:22.311Z,2.40
2022-09-16T04:46:49.144Z,2.87
2022-09-16T04:49:16.398Z,2.03
2022-09-16T04:51:43.467Z,1.97
2022-09-16T04:54:12.269Z,1.90
2022-09-16T04:56:39.341Z,1.80
2022-09-16T04:59:06.823Z,2.10
2022-09-16T05:01:37.532Z,1.63
2022-09-16T05:04:07.063Z,1.77
2022-09-16T05:06:37.212Z,2.53
2022-09-16T05:09:04.674Z,1.63
2022-09-16T05:11:34.648Z,2.10
2022-09-16T05:14:03.433Z,1.60
2022-09-16T05:16:31.010Z,2.10
2022-09-16T05:18:59.826Z,1.80
2022-09-16T05:21:28.497Z,1.77
2022-09-16T05:23:59.543Z,2.13
2022-09-16T05:26:29.331Z,1.87
2022-09-16T05:28:56.320Z,1.80
2022-09-16T05:31:28.785Z,1.73
2022-09-16T05:34:00.848Z,1.77
2022-09-16T05:36:30.658Z,1.80
2022-09-16T05:39:22.096Z,1.60
2022-09-16T05:41:46.078Z,1.57
2022-09-16T05:44:13.503Z,1.40
2022-09-16T05:46:41.310Z,1.90
2022-09-16T05:49:09.893Z,1.77
2022-09-16T05:51:41.395Z,1.70
2022-09-16T05:54:08.631Z,1.47
2022-09-16T05:56:35.715Z,1.70
2022-09-16T05:59:02.622Z,1.60
2022-09-16T06:01:35.765Z,2.60
2022-09-16T06:04:06.068Z,1.37
2022-09-16T06:06:35.918Z,1.67
2022-09-16T06:09:27.482Z,1.60
2022-09-16T06:12:00.941Z,1.43
2022-09-16T06:14:29.160Z,1.60
2022-09-16T06:16:56.506Z,1.33
2022-09-16T06:19:23.531Z,2.13
2022-09-16T06:21:50.441Z,1.67
2022-09-16T06:24:19.276Z,1.50
2022-09-16T06:26:48.278Z,1.80
2022-09-16T06:29:16.658Z,1.50
2022-09-16T06:31:43.690Z,1.70
2022-09-16T06:34:15.532Z,1.70
2022-09-16T06:36:45.058Z,1.60
2022-09-16T06:39:15.530Z,1.70
2022-09-16T06:41:45.512Z,1.42
2022-09-16T06:44:12.583Z,1.40
2022-09-16T06:46:39.529Z,2.42
2022-09-16T06:49:06.845Z,1.65
2022-09-16T06:51:35.809Z,1.50
2022-09-16T06:54:06.682Z,2.05
2022-09-16T06:56:36.087Z,1.42
2022-09-16T06:59:03.623Z,1.95
2022-09-16T07:01:31.964Z,1.80
2022-09-16T07:04:01.798Z,1.33
2022-09-16T07:06:57.482Z,1.58
2022-09-16T07:09:17.430Z,1.35
2022-09-16T07:11:44.922Z,1.40
2022-09-16T07:14:12.378Z,1.75
2022-09-16T07:16:39.471Z,1.30
2022-09-16T07:19:06.814Z,1.95
2022-09-16T07:21:38.923Z,1.60
2022-09-16T07:24:05.921Z,1.50
2022-09-16T07:26:35.242Z,1.23
2022-09-16T07:29:04.487Z,2.15
2022-09-16T07:31:35.380Z,1.60
2022-09-16T07:34:05.008Z,1.38
2022-09-16T07:36:41.126Z,1.67
2022-09-16T07:39:08.868Z,1.58
2022-09-16T07:41:38.017Z,1.42
2022-09-16T07:44:06.499Z,1.60
2022-09-16T07:46:35.822Z,1.60
2022-09-16T07:49:05.872Z,1.70
2022-09-16T07:51:33.280Z,1.17
2022-09-16T07:54:03.666Z,1.55
2022-09-16T07:56:36.538Z,1.48
2022-09-16T07:59:05.875Z,1.60
2022-09-16T08:01:33.875Z,1.60
2022-09-16T08:04:02.555Z,1.85
2022-09-16T08:06:31.759Z,1.65
2022-09-16T08:09:10.036Z,1.65
2022-09-16T08:11:42.489Z,1.35
2022-09-16T08:14:09.515Z,1.80
2022-09-16T08:16:36.485Z,1.63
2022-09-16T08:19:03.546Z,2.08
2022-09-16T08:21:31.080Z,1.42
2022-09-16T08:23:57.948Z,1.70
2022-09-16T08:26:26.061Z,1.73
2022-09-16T08:29:10.183Z,1.60
2022-09-16T08:31:38.601Z,1.92
2022-09-16T08:34:05.696Z,1.83
2022-09-16T08:36:35.753Z,1.52
2022-09-16T08:39:03.290Z,1.40
2022-09-16T08:41:42.183Z,1.60
2022-09-16T08:44:27.952Z,1.58
2022-09-16T08:47:03.996Z,1.58
2022-09-16T08:49:36.044Z,1.60
2022-09-16T08:52:10.876Z,1.50
2022-09-16T08:54:42.666Z,1.63
2022-09-16T08:57:15.842Z,1.80
2022-09-16T08:59:48.467Z,1.85
2022-09-16T09:02:48.542Z,1.25
2022-09-16T09:05:30.825Z,1.30
2022-09-16T09:08:27.464Z,1.30
2022-09-16T09:11:10.706Z,1.27
2022-09-16T09:13:47.709Z,1.52
2022-09-16T09:16:26.946Z,1.80
2022-09-16T09:19:03.414Z,1.00
2022-09-16T09:21:55.210Z,1.50
2022-09-16T09:24:48.334Z,1.20
2022-09-16T09:27:26.294Z,1.00
2022-09-16T09:30:11.362Z,1.85
2022-09-16T09:32:55.572Z,1.83
2022-09-16T09:35:31.095Z,1.47
2022-09-16T09:38:24.919Z,2.20
2022-09-16T09:40:58.764Z,1.80
2022-09-16T09:43:41.957Z,1.15
2022-09-16T09:46:41.399Z,2.45
2022-09-16T09:49:37.541Z,1.35
2022-09-16T09:52:04.405Z,0.90
2022-09-16T09:54:35.285Z,1.25
2022-09-16T09:57:21.994Z,1.20
2022-09-16T10:00:00.966Z,1.13
2022-09-16T10:02:28.437Z,1.40
2022-09-16T10:04:55.675Z,1.05
2022-09-16T10:07:24.665Z,0.90
2022-09-16T10:09:55.533Z,1.05
2022-09-16T10:12:40.790Z,1.55
2022-09-16T10:15:21.003Z,1.10
2022-09-16T10:17:50.497Z,0.93
2022-09-16T10:20:57.908Z,1.00
2022-09-16T10:23:29.672Z,1.60
2022-09-16T10:26:14.048Z,1.17
2022-09-16T10:28:41.131Z,1.27
2022-09-16T10:31:08.821Z,0.80
2022-09-16T10:33:42.457Z,1.00
2022-09-16T10:36:17.603Z,0.88
2022-09-16T10:38:55.216Z,0.90
2022-09-16T10:41:25.923Z,1.00
2022-09-16T10:44:17.202Z,1.02
2022-09-16T10:46:54.602Z,1.02
2022-09-16T10:49:35.244Z,1.15
2022-09-16T10:52:29.287Z,1.10
2022-09-16T10:54:56.974Z,0.93
2022-09-16T10:57:30.197Z,1.33
2022-09-16T11:00:23.464Z,1.33
2022-09-16T11:03:30.109Z,0.95
2022-09-16T11:05:59.899Z,1.02
2022-09-16T11:08:55.117Z,1.13
2022-09-16T11:12:06.480Z,1.67
2022-09-16T11:14:40.606Z,1.13
2022-09-16T11:17:34.975Z,1.88
2022-09-16T11:20:32.770Z,1.05
2022-09-16T11:23:40.821Z,1.15
2022-09-16T11:26:32.518Z,1.17
2022-09-16T11:29:12.752Z,1.52
2022-09-16T11:31:45.655Z,1.25
2022-09-16T11:34:25.989Z,1.17
2022-09-16T11:37:14.030Z,1.10
2022-09-16T11:40:18.265Z,1.30
2022-09-16T11:43:13.054Z,1.13
2022-09-16T11:45:58.213Z,1.40
2022-09-16T11:48:59.356Z,1.13
2022-09-16T11:51:29.317Z,0.98
2022-09-16T11:54:09.944Z,1.25
2022-09-16T11:56:48.007Z,1.30
2022-09-16T11:59:25.431Z,1.10
2022-09-16T12:02:22.443Z,0.80
2022-09-16T12:05:07.171Z,1.30
2022-09-16T12:07:39.859Z,1.10
2022-09-16T12:10:13.224Z,1.23
2022-09-16T12:12:46.706Z,0.70
2022-09-16T12:15:27.721Z,1.15
2022-09-16T12:18:17.681Z,1.10
2022-09-16T12:20:50.707Z,1.55
2022-09-16T12:23:22.915Z,0.90
2022-09-16T12:26:34.938Z,1.20
2022-09-16T12:29:18.520Z,0.85
2022-09-16T12:32:13.025Z,1.20
2022-09-16T12:34:49.353Z,0.85
2022-09-16T12:37:46.745Z,1.10
2022-09-16T12:40:26.701Z,0.95
2022-09-16T12:43:12.200Z,0.98
2022-09-16T12:45:39.181Z,1.10
2022-09-16T12:48:18.318Z,1.02
2022-09-16T12:50:59.864Z,0.77
2022-09-16T12:53:49.656Z,1.30
2022-09-16T12:56:22.410Z,0.70
2022-09-16T12:59:16.810Z,1.00
2022-09-16T13:01:48.451Z,1.42
2022-09-16T13:04:29.586Z,1.42
2022-09-16T13:07:02.026Z,0.90
2022-09-16T13:09:33.430Z,0.98
2022-09-16T13:14:54.116Z,0.75
2022-09-16T13:17:41.779Z,1.00
2022-09-16T13:20:36.756Z,1.45
2022-09-16T13:23:27.705Z,0.90
2022-09-16T13:26:05.515Z,0.75
2022-09-16T13:28:32.273Z,1.00
2022-09-16T13:31:11.359Z,0.77
2022-09-16T13:33:40.507Z,0.90
2022-09-16T13:36:20.296Z,1.02
2022-09-16T13:38:50.381Z,1.60
2022-09-16T13:41:33.061Z,1.23
2022-09-16T13:44:00.598Z,0.70
2022-09-16T13:46:32.340Z,1.45
2022-09-16T13:49:27.709Z,0.90
2022-09-16T13:51:54.944Z,0.80
2022-09-16T13:54:24.882Z,0.98
2022-09-16T13:56:57.648Z,1.30
2022-09-16T13:59:51.299Z,1.13
2022-09-16T14:02:27.634Z,0.77
2022-09-16T14:05:16.482Z,1.15
2022-09-16T14:07:50.376Z,0.93
2022-09-16T14:10:51.902Z,0.80
2022-09-16T14:13:20.882Z,1.27
2022-09-16T14:15:54.242Z,1.08
2022-09-16T14:18:26.251Z,1.15
2022-09-16T14:20:56.550Z,0.82
2022-09-16T14:23:26.358Z,0.90
2022-09-16T14:25:55.548Z,0.88
2022-09-16T14:28:25.818Z,1.15
2022-09-16T14:30:58.518Z,0.98
2022-09-16T14:33:28.616Z,1.08
2022-09-16T14:35:56.827Z,1.27
2022-09-16T14:38:45.679Z,0.95
2022-09-16T14:41:23.338Z,1.10
2022-09-16T14:43:51.742Z,1.10
2022-09-16T14:46:19.044Z,1.20
2022-09-16T14:48:46.556Z,1.45
2022-09-16T14:51:22.057Z,0.68
2022-09-16T14:54:13.600Z,0.93
2022-09-16T14:56:41.135Z,0.75
2022-09-16T14:59:13.005Z,0.68
2022-09-16T15:01:41.136Z,2.63
2022-09-16T15:04:16.012Z,2.13
2022-09-16T15:06:49.233Z,1.30
2022-09-16T15:09:22.716Z,1.25
2022-09-16T15:11:57.175Z,1.15
2022-09-16T15:14:25.208Z,1.33
2022-09-16T15:17:03.446Z,1.20
2022-09-16T15:19:35.336Z,1.02
2022-09-16T15:22:04.004Z,1.52
2022-09-16T15:24:34.324Z,1.10
2022-09-16T15:27:02.086Z,0.85
2022-09-16T15:29:32.453Z,0.80
2022-09-16T15:32:24.128Z,0.80
2022-09-16T15:35:11.979Z,0.85
2022-09-16T15:37:38.900Z,1.13
2022-09-16T15:40:25.913Z,1.33
2022-09-16T15:43:04.946Z,1.73
2022-09-16T15:45:32.075Z,1.10
2022-09-16T15:48:16.851Z,1.20
2022-09-16T15:50:51.503Z,1.20
2022-09-16T15:53:26.979Z,1.10
2022-09-16T15:56:17.774Z,0.88
2022-09-16T15:58:48.861Z,1.13
2022-09-16T16:01:39.018Z,0.80
2022-09-16T16:04:09.003Z,1.20
2022-09-16T16:07:04.476Z,1.05
2022-09-16T16:09:43.024Z,0.88
2022-09-16T16:12:11.520Z,1.00
2022-09-16T16:14:40.608Z,1.42
2022-09-16T16:17:13.474Z,1.20
2022-09-16T16:19:47.329Z,0.90
2022-09-16T16:22:15.942Z,0.82
2022-09-16T16:24:43.432Z,0.88
2022-09-16T16:27:10.531Z,1.58
2022-09-16T16:29:38.957Z,2.33
2022-09-16T16:32:14.804Z,1.45
2022-09-16T16:34:47.531Z,1.40
2022-09-16T16:37:40.421Z,0.90
2022-09-16T16:40:07.863Z,1.00
2022-09-16T16:42:35.750Z,0.85
2022-09-16T16:45:03.645Z,1.10
2022-09-16T16:47:30.911Z,1.00
2022-09-16T16:49:58.428Z,1.30
2022-09-16T16:52:25.574Z,1.40
2022-09-16T16:54:52.830Z,1.30
2022-09-16T16:57:20.099Z,1.30
2022-09-16T16:59:46.976Z,0.90
2022-09-16T17:02:15.147Z,1.33
2022-09-16T17:04:42.246Z,1.70
2022-09-16T17:07:25.160Z,1.23
2022-09-16T17:09:54.272Z,0.93
2022-09-16T17:12:21.487Z,0.97
2022-09-16T17:14:48.261Z,1.07
2022-09-16T17:17:15.385Z,1.30
2022-09-16T17:19:42.154Z,1.10
2022-09-16T17:22:09.051Z,1.00
2022-09-16T17:24:36.610Z,1.50
2022-09-16T17:27:04.603Z,0.80
2022-09-16T17:29:31.594Z,1.40
2022-09-16T17:32:02.349Z,1.10
2022-09-16T17:34:30.056Z,1.43
2022-09-16T17:36:58.405Z,0.90
2022-09-16T17:39:26.191Z,0.83
2022-09-16T17:41:56.466Z,0.97
2022-09-16T17:44:23.455Z,0.90
2022-09-16T17:46:51.764Z,1.20
2022-09-16T17:49:24.653Z,0.80
2022-09-16T17:51:53.369Z,0.83
2022-09-16T17:54:21.702Z,1.90
2022-09-16T17:56:48.671Z,1.23
2022-09-16T17:59:18.017Z,1.77
2022-09-16T18:01:46.155Z,1.27
2022-09-16T18:04:13.235Z,1.40
2022-09-16T18:06:42.746Z,1.47
2022-09-16T18:09:10.881Z,1.10
2022-09-16T18:11:38.849Z,1.37
2022-09-16T18:14:08.152Z,1.27
2022-09-16T18:16:35.537Z,1.10
2022-09-16T18:19:03.469Z,1.20
2022-09-16T18:21:32.363Z,1.67
2022-09-16T18:24:02.614Z,1.80
2022-09-16T18:26:31.282Z,2.87
2022-09-16T18:29:16.652Z,2.37
2022-09-16T18:31:47.112Z,2.17
2022-09-16T18:34:15.649Z,2.43
2022-09-16T18:36:42.591Z,2.40
2022-09-16T18:39:15.561Z,2.60
2022-09-16T18:41:45.205Z,2.27
2022-09-16T18:44:19.577Z,1.70
2022-09-16T18:46:47.682Z,2.07
2022-09-16T18:49:16.308Z,2.10
2022-09-16T18:51:50.890Z,2.17
2022-09-16T18:54:27.966Z,1.80
2022-09-16T18:56:56.458Z,2.13
2022-09-16T18:59:28.138Z,1.90
2022-09-16T19:02:02.680Z,2.23
2022-09-16T19:04:33.406Z,2.17
2022-09-16T19:07:08.366Z,1.80
2022-09-16T19:09:39.836Z,2.57
2022-09-16T19:12:10.888Z,2.53
2022-09-16T19:14:39.377Z,2.47
2022-09-16T19:17:06.664Z,2.10
2022-09-16T19:19:33.565Z,2.30
2022-09-16T19:22:05.323Z,2.30
2022-09-16T19:24:33.025Z,2.50
2022-09-16T19:27:00.080Z,2.33
2022-09-16T19:29:27.103Z,2.43
2022-09-16T19:31:54.278Z,2.87
2022-09-16T19:34:22.185Z,2.50
2022-09-16T19:36:49.348Z,3.40
2022-09-16T19:39:16.399Z,2.63
2022-09-16T19:41:43.554Z,2.60
2022-09-16T19:44:14.064Z,2.77
2022-09-16T19:46:46.990Z,2.80
2022-09-16T19:49:17.076Z,2.50
2022-09-16T19:51:44.185Z,2.50
2022-09-16T19:54:11.469Z,2.97
2022-09-16T19:56:38.500Z,3.20
2022-09-16T19:59:05.979Z,2.63
2022-09-16T20:01:34.789Z,3.20
2022-09-16T20:04:03.643Z,2.30
2022-09-16T20:06:37.809Z,2.43
2022-09-16T20:09:08.618Z,2.73
2022-09-16T20:11:38.131Z,2.40
2022-09-16T20:14:07.729Z,2.93
2022-09-16T20:16:38.090Z,2.60
2022-09-16T20:19:07.340Z,2.60
2022-09-16T20:21:35.727Z,2.60
2022-09-16T20:24:07.799Z,2.53
2022-09-16T20:26:35.785Z,2.20
2022-09-16T20:29:03.462Z,2.40
2022-09-16T20:31:35.517Z,2.50
2022-09-16T20:34:04.367Z,2.33
2022-09-16T20:36:32.498Z,2.63
2022-09-16T20:39:00.230Z,2.60
2022-09-16T20:41:30.581Z,2.97
2022-09-16T20:43:59.347Z,2.40
2022-09-16T20:46:38.799Z,2.83
2022-09-16T20:49:10.521Z,2.50
2022-09-16T20:51:37.603Z,2.27
2022-09-16T20:54:08.355Z,3.30
2022-09-16T20:56:38.974Z,2.30
2022-09-16T20:59:10.111Z,2.90
2022-09-16T21:01:38.512Z,2.27
2022-09-16T21:04:07.828Z,2.00
2022-09-16T21:06:36.085Z,2.17
2022-09-16T21:09:06.716Z,2.60
2022-09-16T21:11:34.097Z,2.37
2022-09-16T21:14:06.581Z,2.03
2022-09-16T21:16:36.055Z,2.93
2022-09-16T21:19:05.754Z,2.50
2022-09-16T21:21:32.564Z,2.17
2022-09-16T21:24:01.379Z,2.67
2022-09-16T21:26:33.636Z,2.20
2022-09-16T21:29:03.810Z,2.17
2022-09-16T21:31:37.252Z,2.40
2022-09-16T21:34:06.635Z,2.00
2022-09-16T21:36:35.330Z,2.90
2022-09-16T21:39:02.435Z,2.10
2022-09-16T21:41:31.201Z,2.30
2022-09-16T21:43:58.104Z,2.20
2022-09-16T21:46:27.587Z,2.00
2022-09-16T21:49:01.196Z,2.00
2022-09-16T21:51:35.282Z,2.20
2022-09-16T21:54:08.733Z,2.10
2022-09-16T21:56:40.022Z,2.13
2022-09-16T21:59:10.433Z,2.10
2022-09-16T22:01:37.707Z,2.77
2022-09-16T22:04:12.956Z,2.20
2022-09-16T22:06:40.394Z,2.37
2022-09-16T22:09:08.877Z,2.13
2022-09-16T22:11:37.941Z,2.33
2022-09-16T22:14:05.355Z,2.57
2022-09-16T22:16:34.288Z,2.17
2022-09-16T22:19:07.949Z,2.40
2022-09-16T22:21:38.112Z,2.43
2022-09-16T22:24:06.199Z,2.07
2022-09-16T22:26:33.219Z,2.50
2022-09-16T22:29:00.794Z,2.50
2022-09-16T22:31:32.667Z,1.80
2022-09-16T22:34:01.472Z,2.40
2022-09-16T22:36:33.048Z,2.00
2022-09-16T22:39:04.208Z,2.63
2022-09-16T22:41:33.157Z,2.43
2022-09-16T22:44:00.619Z,2.27
2022-09-16T22:46:30.118Z,1.73
2022-09-16T22:48:58.935Z,2.13
2022-09-16T22:51:29.115Z,2.50
2022-09-16T22:53:56.097Z,2.07
2022-09-16T22:56:28.341Z,2.17
2022-09-16T22:58:57.375Z,2.10
2022-09-16T23:01:31.976Z,1.80
2022-09-16T23:04:00.797Z,2.53
2022-09-16T23:06:30.195Z,2.30
2022-09-16T23:08:57.753Z,2.40
2022-09-16T23:11:28.665Z,2.57
2022-09-16T23:13:56.905Z,2.17
2022-09-16T23:16:30.188Z,2.23
2022-09-16T23:19:02.055Z,2.23
2022-09-16T23:21:31.420Z,2.40
2022-09-16T23:24:01.572Z,2.33
2022-09-16T23:26:32.045Z,2.53
2022-09-16T23:29:01.704Z,2.03
2022-09-16T23:31:31.522Z,2.50
2022-09-16T23:33:58.652Z,2.47
2022-09-16T23:36:27.400Z,2.97
2022-09-16T23:38:54.869Z,2.63
2022-09-16T23:41:27.652Z,2.93
2022-09-16T23:43:56.307Z,3.03
2022-09-16T23:46:26.140Z,2.80
2022-09-16T23:48:54.648Z,2.27
2022-09-16T23:51:28.013Z,2.90
2022-09-16T23:53:59.078Z,2.83
2022-09-16T23:56:27.157Z,2.90
2022-09-16T23:58:58.459Z,3.13
